»·PEaware :: AAL3480 KSEA-KGEG

AAL3480 :: KSEA-KGEG

FLIGHT INFORMATION

Flight Status: Arrived
Operator:
American Airlines
More flights by this operator :: More flights under this callsign
Pilot: Erik S. (14620)
Aircraft: AIRBUS A320
(A320)
More flights by this aircraft type
Origin: KSEA Seattle-Tacoma Intl
United States
Destination: KGEG Spokane Intl
United States
More flights between these airports :: More routes between these airports
Route: ATOME2 NORMY EPH ZOOMR1
File this flight plan on PilotEdge
Remarks:
Altitude:
(Current/Filed)
33,000ft
Speed:
(Current/Filed)
452kts
Departed: 20-Mar-18 12:45 PM
Arrived: 20-Mar-18 01:37 PM
Distance/Time
Traveled:
193nm/0:51
Distance/Time
To Go:
Arrived

Flight Plot

Page will automatically refresh every two minutes.

Flight plan parsing failed; only flown route is shown


Map Options




Map Legend


Flown Route
Filed Route
Departure Airport
Arrival Airport
Navaid (VOR, NDB)
Fix

Horizontal Profiles

Position Reports

Time Latitude Longitude Heading Altitude Ground
Speed
20-Mar-18 11:57 47.446171 -122.300257 136 442ft 0kts
20-Mar-18 11:58 47.446171 -122.300257 136 442ft 0kts
20-Mar-18 11:59 47.446171 -122.300257 136 442ft 0kts
20-Mar-18 12:00 47.446171 -122.300257 136 442ft 0kts
20-Mar-18 12:01 47.446171 -122.300257 136 442ft 0kts
20-Mar-18 12:02 47.446171 -122.300257 136 442ft 0kts
20-Mar-18 12:03 47.446171 -122.300257 136 442ft 0kts
20-Mar-18 12:04 47.446171 -122.300257 136 442ft 0kts
20-Mar-18 12:05 47.446171 -122.300257 136 442ft 0kts
20-Mar-18 12:06 47.446171 -122.300257 136 442ft 0kts
20-Mar-18 12:07 47.446171 -122.300257 136 442ft 0kts
20-Mar-18 12:08 47.446171 -122.300257 136 442ft 0kts
20-Mar-18 12:09 47.446171 -122.300257 136 442ft 0kts
20-Mar-18 12:10 47.446171 -122.300257 136 442ft 0kts
20-Mar-18 12:11 47.446171 -122.300257 136 442ft 0kts
20-Mar-18 12:12 47.446171 -122.300257 136 442ft 0kts
20-Mar-18 12:13 47.446171 -122.300257 136 442ft 0kts
20-Mar-18 12:14 47.446171 -122.300257 136 442ft 0kts
20-Mar-18 12:15 47.446171 -122.300257 136 442ft 0kts
20-Mar-18 12:16 47.446171 -122.300257 136 442ft 0kts
20-Mar-18 12:19 47.446171 -122.300257 136 442ft 0kts
20-Mar-18 12:20 47.446171 -122.300257 136 442ft 0kts
20-Mar-18 12:21 47.446171 -122.300258 136 442ft 0kts
20-Mar-18 12:22 47.446171 -122.300258 136 442ft 0kts
20-Mar-18 12:23 47.446171 -122.300258 136 442ft 0kts
20-Mar-18 12:24 47.446171 -122.300258 136 442ft 0kts
20-Mar-18 12:25 47.446171 -122.300258 136 442ft 0kts
20-Mar-18 12:26 47.446171 -122.300258 136 442ft 0kts
20-Mar-18 12:27 47.446171 -122.300258 136 442ft 0kts
20-Mar-18 12:28 47.446171 -122.300258 136 442ft 0kts
20-Mar-18 12:29 47.446171 -122.300258 136 442ft 0kts
20-Mar-18 12:35 47.447064 -122.300410 234 442ft 0kts
20-Mar-18 12:36 47.447056 -122.300425 234 442ft 1kts
20-Mar-18 12:37 47.447046 -122.302924 306 442ft 10kts
20-Mar-18 12:38 47.447528 -122.306293 181 442ft 10kts
20-Mar-18 12:39 47.442288 -122.306343 180 442ft 22kts
20-Mar-18 12:40 47.435926 -122.305866 145 442ft 23kts
20-Mar-18 12:41 47.431729 -122.306704 251 442ft 0kts
20-Mar-18 12:42 47.431729 -122.306704 251 442ft 0kts
20-Mar-18 12:43 47.432272 -122.308016 358 442ft 7kts
20-Mar-18 12:44 47.458727 -122.308325 0 1288ft 152kts
20-Mar-18 12:45 47.504007 -122.307520 358 3433ft 198kts
20-Mar-18 12:46 47.567227 -122.321540 327 5603ft 264kts
20-Mar-18 12:47 47.619571 -122.396428 298 8665ft 273kts
20-Mar-18 12:48 47.674540 -122.458683 357 9071ft 272kts
20-Mar-18 12:49 47.740433 -122.420340 66 10366ft 296kts
20-Mar-18 12:50 47.713130 -122.298841 126 11648ft 365kts
20-Mar-18 12:51 47.650936 -122.170813 126 13422ft 392kts
20-Mar-18 12:52 47.586984 -122.039925 126 15345ft 405kts
20-Mar-18 12:53 47.519955 -121.903694 126 17134ft 417kts
20-Mar-18 12:54 47.450850 -121.763921 125 18764ft 427kts
20-Mar-18 12:55 47.427577 -121.594158 89 20208ft 435kts
20-Mar-18 12:56 47.425297 -121.414606 89 21576ft 445kts
20-Mar-18 12:57 47.422447 -121.234523 90 22749ft 454kts
20-Mar-18 12:58 47.419180 -121.048042 90 23820ft 464kts
20-Mar-18 12:59 47.415528 -120.857459 90 24846ft 473kts
20-Mar-18 13:00 47.411482 -120.663120 90 25826ft 480kts
20-Mar-18 13:01 47.407040 -120.466023 90 26749ft 486kts
20-Mar-18 13:02 47.402232 -120.267742 91 27754ft 488kts
20-Mar-18 13:03 47.397058 -120.068314 90 28882ft 486kts
20-Mar-18 13:04 47.391548 -119.869635 90 29905ft 484kts
20-Mar-18 13:05 47.385748 -119.672722 91 27716ft 486kts
20-Mar-18 13:06 47.379547 -119.474345 91 24946ft 483kts
20-Mar-18 13:07 47.384464 -119.286246 85 22322ft 453kts
20-Mar-18 13:08 47.392646 -119.106791 86 18734ft 428kts
20-Mar-18 13:09 47.399999 -118.939967 86 15193ft 406kts
20-Mar-18 13:10 47.406938 -118.776677 87 13056ft 397kts
20-Mar-18 13:11 47.413553 -118.615511 87 13072ft 397kts
20-Mar-18 13:12 47.419882 -118.457986 87 13063ft 356kts
20-Mar-18 13:13 47.424950 -118.328347 88 13044ft 317kts
20-Mar-18 13:14 47.447373 -118.204266 74 13043ft 308kts
20-Mar-18 13:15 47.472157 -118.083873 74 13046ft 308kts
20-Mar-18 13:16 47.469789 -117.967984 141 12198ft 287kts
20-Mar-18 13:17 47.406572 -117.984325 247 10747ft 266kts
20-Mar-18 13:18 47.420616 -118.090513 286 9512ft 265kts
20-Mar-18 13:19 47.473109 -118.149504 16 9047ft 280kts
20-Mar-18 13:20 47.523372 -118.071181 56 9009ft 264kts
20-Mar-18 13:21 47.565511 -117.984232 55 7961ft 259kts
20-Mar-18 13:22 47.606442 -117.901140 55 7233ft 240kts
20-Mar-18 13:23 47.645242 -117.823078 55 7041ft 234kts
20-Mar-18 13:24 47.683726 -117.745703 55 7039ft 233kts
20-Mar-18 13:25 47.719799 -117.673588 55 6150ft 205kts
20-Mar-18 13:26 47.753388 -117.606868 55 5023ft 201kts
20-Mar-18 13:27 47.786987 -117.539598 55 5035ft 202kts
20-Mar-18 13:28 47.820298 -117.472320 55 5039ft 202kts
20-Mar-18 13:29 47.824244 -117.402126 134 5037ft 188kts
20-Mar-18 13:30 47.786543 -117.350882 174 4856ft 179kts
20-Mar-18 13:31 47.739915 -117.367538 199 4038ft 153kts
20-Mar-18 13:32 47.708779 -117.403930 216 4040ft 140kts
20-Mar-18 13:33 47.680725 -117.444318 221 3776ft 141kts
20-Mar-18 13:34 47.653271 -117.485399 221 3034ft 140kts
20-Mar-18 13:35 47.626166 -117.525801 225 2393ft 103kts
20-Mar-18 13:36 47.619982 -117.537699 255 2393ft 0kts
20-Mar-18 13:37 47.620119 -117.538712 353 2393ft 7kts
20-Mar-18 13:38 47.622615 -117.538170 289 2393ft 8kts
20-Mar-18 13:39 47.623314 -117.538735 21 2393ft 4kts
20-Mar-18 13:40 47.623367 -117.538703 21 2393ft 0kts
20-Mar-18 13:41 47.623367 -117.538703 21 2393ft 0kts
20-Mar-18 13:42 47.623367 -117.538703 21 2393ft 0kts
20-Mar-18 13:43 47.623367 -117.538703 21 2393ft 0kts
20-Mar-18 13:44 47.623367 -117.538703 21 2393ft 0kts
20-Mar-18 13:45 47.623367 -117.538703 21 2393ft 0kts
20-Mar-18 13:46 47.623367 -117.538703 21 2393ft 0kts
20-Mar-18 13:47 47.623367 -117.538703 21 2393ft 0kts
20-Mar-18 13:48 47.623367 -117.538703 21 2393ft 0kts
20-Mar-18 13:49 47.623367 -117.538703 21 2393ft 0kts
20-Mar-18 13:50 47.623367 -117.538703 21 2393ft 0kts

Navigation Log

Ident Type
Flight plan parsing failed, navigation log unavailable